Anchor Point, AK

10:38 AM AKDT on October 01, 2014 (GMT -0800)
KAKHOMER5 | Change Station
CLOSE
Current Station
Personal Weather Station
Location: Homer, AK
Elevation: 1152 ft
Nearby Weather Stations

Elev 1152 ft 59.67 °N, 151.49 °W | Updated 23 seconds ago

Clear
Clear
45.1 °F
Feels Like 45 °F
N
1.0
Wind Variable Wind from ENE
Gusts 4.0 mph

Today
High -- | Low -- °F
--% Chance of Precip.
Yesterday
High -- | Low -- °F
Precip. -- in
8:13 AM 7:38 PM
Waxing Crescent, 50% visible
Pressure 30.19 in
Visibility 10.0 miles
Clouds Clear
Windchill 45 °F
Dew Point 25 °F
Humidity 45%
Rainfall 0.00 in
Snow Depth 102 in , 3 in , 12 in
UV 1 out of 12
Pollen Not available.
Air Quality Not available.
Flu Activity Not available.
METAR PAHO 301753Z 00000KT 10SM CLR 04/M02 A3019 RMK AO2 SLP222 T00441022 10072 20000 52014

More Conditions Fewer Conditions

Pressure 30.19 in
Visibility 10.0 miles
Clouds Clear
Windchill 45 °F
Dew Point 25 °F
Humidity 45%
Rainfall 0.00 in
Snow Depth 102 in , 3 in , 12 in
UV 1 out of 12
Pollen Not available.
Air Quality Not available.
Flu Activity Not available.
METAR PAHO 301753Z 00000KT 10SM CLR 04/M02 A3019 RMK AO2 SLP222 T00441022 10072 20000 52014

More Conditions Fewer Conditions

10-Day Weather Forecast

Almanac

Astronomy

Oct. 01, 2014 Rise Set
Actual Time 8:13 AM AKDT 7:38 PM AKDT
Civil Twilight 7:31 AM AKDT 8:19 PM AKDT
Nautical Twilight 6:43 AM AKDT 9:08 PM AKDT
Astronomical Twilight 5:52 AM AKDT 9:58 PM AKDT
Moon 4:27 PM AKDT No Moon Set
Length of Visible Light 12h 48m
Length of Day
11h 25m
Tomorrow will be 5m 20s shorter.
Waxing Crescent, 50% of the Moon is Illuminated
Today
Waxing Crescent
Oct 1
First Quarter
Oct 8
Full
Oct 15
Last Quarter
Oct 23
New

Today's Extremes

State Highs State Lows

Community

WunderPhotos

Upload Photos

1,758,010 photos uploaded!

WunderBlogs® & News

By Dr. Jeff Masters
Director of Meteorology, Weather Underground
By Kari Strenfel
Meteorologist, Weather Underground
By Christopher C. Burt
Weather Historian, Weather Underground
October 1, 2014
October 1, 2014
October 1, 2014

Nearby

Snow Depth

Station Depth Elevation
Atigun Pass 102 in 4800 ft
MF Bradley River 2 in 2300 ft
Upper Chena 7 in 2850 ft
Coldfoot 3 in 1040 ft
Grandview 12 in 1100 ft

Earthquake Activity

City Distance Mag. Time & Date
No recent earthquake activity has been reported nearby.
Minimum magnitude displayed is 2.5.

Coastal Water Temperatures

Place Temperature
No Stations Reporting

Nearby Weather Stations